createdAt,value
2022-09-06T00:04:32.390Z,1.23
2022-09-06T00:09:54.725Z,1.10
2022-09-06T00:15:17.993Z,1.10
2022-09-06T00:20:43.891Z,1.07
2022-09-06T00:26:06.176Z,0.97
2022-09-06T00:31:29.017Z,0.90
2022-09-06T00:36:51.468Z,1.00
2022-09-06T00:42:14.200Z,1.30
2022-09-06T00:47:41.001Z,1.07
2022-09-06T00:53:48.823Z,1.10
2022-09-06T00:59:11.641Z,1.10
2022-09-06T01:04:34.406Z,1.10
2022-09-06T01:10:15.539Z,1.10
2022-09-06T01:15:40.962Z,0.93
2022-09-06T01:21:37.363Z,1.00
2022-09-06T01:27:34.487Z,1.00
2022-09-06T01:33:39.281Z,1.23
2022-09-06T01:39:02.998Z,1.03
2022-09-06T01:44:28.640Z,1.40
2022-09-06T01:50:03.539Z,1.47
2022-09-06T01:55:57.703Z,1.07
2022-09-06T02:01:59.338Z,1.23
2022-09-06T02:07:26.642Z,1.00
2022-09-06T02:12:53.818Z,1.00
2022-09-06T02:18:22.629Z,1.30
2022-09-06T02:23:47.595Z,1.13
2022-09-06T02:29:10.348Z,1.10
2022-09-06T02:34:32.782Z,1.40
2022-09-06T02:39:56.178Z,1.40
2022-09-06T02:45:18.567Z,1.07
2022-09-06T02:50:40.984Z,1.33
2022-09-06T02:56:04.005Z,1.40
2022-09-06T03:01:26.673Z,1.20
2022-09-06T03:06:49.289Z,1.20
2022-09-06T03:12:11.802Z,1.20
2022-09-06T03:17:34.068Z,1.43
2022-09-06T03:22:56.558Z,1.50
2022-09-06T03:28:19.747Z,1.27
2022-09-06T03:33:42.162Z,1.57
2022-09-06T03:39:04.672Z,1.30
2022-09-06T03:44:27.093Z,1.20
2022-09-06T03:49:49.229Z,1.40
2022-09-06T03:55:12.174Z,1.23
2022-09-06T04:00:34.650Z,1.50
2022-09-06T04:05:56.727Z,1.33
2022-09-06T04:11:19.435Z,1.30
2022-09-06T04:16:42.140Z,1.23
2022-09-06T04:22:04.708Z,1.40
2022-09-06T04:27:26.908Z,1.60
2022-09-06T04:32:49.389Z,1.60
2022-09-06T04:38:11.707Z,1.73
2022-09-06T04:43:33.982Z,1.40
2022-09-06T04:48:57.651Z,1.50
2022-09-06T04:54:20.154Z,1.90
2022-09-06T04:59:42.463Z,1.70
2022-09-06T05:05:05.314Z,1.00
2022-09-06T05:10:27.834Z,1.70
2022-09-06T05:15:50.156Z,1.50
2022-09-06T05:21:12.843Z,2.60
2022-09-06T05:26:35.397Z,1.70
2022-09-06T05:31:58.857Z,1.40
2022-09-06T05:37:21.790Z,1.30
2022-09-06T05:42:43.984Z,1.57
2022-09-06T05:48:06.287Z,1.30
2022-09-06T05:53:34.939Z,1.43
2022-09-06T05:58:57.621Z,1.50
2022-09-06T06:04:21.050Z,1.60
2022-09-06T06:09:43.355Z,1.33
2022-09-06T06:15:06.586Z,1.40
2022-09-06T06:20:29.190Z,1.20
2022-09-06T06:25:51.456Z,1.70
2022-09-06T06:31:14.714Z,1.77
2022-09-06T06:36:37.466Z,1.50
2022-09-06T06:42:00.292Z,1.20
2022-09-06T06:47:36.733Z,1.50
2022-09-06T06:52:58.877Z,1.70
2022-09-06T06:58:21.586Z,1.37
2022-09-06T07:03:45.065Z,1.50
2022-09-06T07:09:07.387Z,1.33
2022-09-06T07:14:29.671Z,1.70
2022-09-06T07:25:34.743Z,1.43
2022-09-06T07:30:58.123Z,1.30
2022-09-06T07:36:20.791Z,2.10
2022-09-06T07:41:43.375Z,1.90
2022-09-06T07:58:29.970Z,1.60
2022-09-06T08:03:52.955Z,1.70
2022-09-06T08:09:15.507Z,1.70
2022-09-06T08:14:38.219Z,2.50
2022-09-06T08:20:00.706Z,2.40
2022-09-06T08:25:23.487Z,2.17
2022-09-06T08:30:45.919Z,1.87
2022-09-06T08:36:09.232Z,2.03
2022-09-06T08:41:40.397Z,1.90
2022-09-06T08:47:10.388Z,1.90
2022-09-06T08:53:06.556Z,1.80
2022-09-06T08:58:41.684Z,1.58
2022-09-06T09:04:08.134Z,1.95
2022-09-06T09:09:33.232Z,1.92
2022-09-06T09:15:03.001Z,2.13
2022-09-06T09:20:25.155Z,2.13
2022-09-06T09:25:50.133Z,2.13
2022-09-06T09:31:14.373Z,2.08
2022-09-06T09:36:37.690Z,1.65
2022-09-06T09:41:59.890Z,1.92
2022-09-06T09:47:31.296Z,1.63
2022-09-06T09:52:54.463Z,2.63
2022-09-06T09:58:40.767Z,1.52
2022-09-06T10:10:11.999Z,2.17
2022-09-06T10:15:37.910Z,1.88
2022-09-06T10:21:05.733Z,1.80
2022-09-06T10:26:43.260Z,1.77
2022-09-06T10:32:30.972Z,1.90
2022-09-06T10:38:23.770Z,2.60
2022-09-06T10:44:03.487Z,2.65
2022-09-06T10:49:28.804Z,2.58
2022-09-06T10:54:53.451Z,2.55
2022-09-06T11:00:17.481Z,2.60
2022-09-06T11:05:51.886Z,2.40
2022-09-06T11:11:21.438Z,2.55
2022-09-06T11:16:57.804Z,2.58
2022-09-06T11:22:26.910Z,2.45
2022-09-06T11:27:58.103Z,2.88
2022-09-06T11:33:30.538Z,2.60
2022-09-06T11:39:04.691Z,2.67
2022-09-06T11:44:58.011Z,2.55
2022-09-06T11:50:26.594Z,2.60
2022-09-06T11:55:50.613Z,2.78
2022-09-06T12:01:13.313Z,2.55
2022-09-06T12:06:42.050Z,2.30
2022-09-06T12:12:05.150Z,2.85
2022-09-06T12:17:45.516Z,2.70
2022-09-06T12:23:07.965Z,2.97
2022-09-06T12:28:47.308Z,3.10
2022-09-06T12:34:19.597Z,3.00
2022-09-06T12:39:58.339Z,2.83
2022-09-06T12:45:27.185Z,2.58
2022-09-06T12:51:04.265Z,2.60
2022-09-06T12:56:29.176Z,2.67
2022-09-06T13:02:05.718Z,3.10
2022-09-06T13:07:29.200Z,3.28
2022-09-06T13:12:53.257Z,2.80
2022-09-06T13:18:22.840Z,3.70
2022-09-06T13:23:51.061Z,3.75
2022-09-06T13:29:23.568Z,3.30
2022-09-06T13:34:56.833Z,3.40
2022-09-06T13:41:06.765Z,3.42
2022-09-06T13:46:25.169Z,3.28
2022-09-06T13:51:47.840Z,2.90
2022-09-06T13:57:10.346Z,3.35
2022-09-06T14:02:33.448Z,3.63
2022-09-06T14:07:55.898Z,3.55
2022-09-06T14:13:19.484Z,3.05
2022-09-06T14:18:41.825Z,3.17
2022-09-06T14:24:04.897Z,3.03
2022-09-06T14:29:28.484Z,3.20
2022-09-06T14:34:50.942Z,3.30
2022-09-06T14:40:13.168Z,2.85
2022-09-06T14:45:35.952Z,3.05
2022-09-06T14:50:58.998Z,2.58
2022-09-06T14:56:21.899Z,3.10
2022-09-06T15:01:44.263Z,3.20
2022-09-06T15:07:08.790Z,3.42
2022-09-06T15:12:31.343Z,3.00
2022-09-06T15:17:53.394Z,3.10
2022-09-06T15:23:24.736Z,2.75
2022-09-06T15:28:48.179Z,2.60
2022-09-06T15:34:10.732Z,2.80
2022-09-06T15:39:32.947Z,2.80
2022-09-06T15:44:56.403Z,2.63
2022-09-06T15:50:34.429Z,2.80
2022-09-06T15:56:03.088Z,2.53
2022-09-06T16:01:26.150Z,2.67
2022-09-06T16:06:48.555Z,2.97
2022-09-06T16:12:11.816Z,2.92
2022-09-06T16:17:34.195Z,2.60
2022-09-06T16:22:56.599Z,2.47
2022-09-06T16:28:19.135Z,2.30
2022-09-06T16:33:42.788Z,3.00
2022-09-06T16:39:06.716Z,2.97
2022-09-06T16:44:30.141Z,3.00
2022-09-06T16:49:52.677Z,2.90
2022-09-06T16:55:15.393Z,3.30
2022-09-06T17:00:43.306Z,3.28
2022-09-06T17:06:07.776Z,2.90
2022-09-06T17:11:30.677Z,2.75
2022-09-06T17:17:05.582Z,3.15
2022-09-06T17:22:28.041Z,2.97
2022-09-06T17:27:50.823Z,2.45
2022-09-06T17:33:13.630Z,2.60
2022-09-06T17:38:36.110Z,2.88
2022-09-06T17:43:58.843Z,2.58
2022-09-06T17:49:21.242Z,2.47
2022-09-06T17:54:44.687Z,3.00
2022-09-06T18:00:07.611Z,2.97
2022-09-06T18:05:30.303Z,2.78
2022-09-06T18:10:52.650Z,2.28
2022-09-06T18:16:15.220Z,2.45
2022-09-06T18:21:39.089Z,2.97
2022-09-06T18:27:03.071Z,2.03
2022-09-06T18:32:25.764Z,2.70
2022-09-06T18:37:48.056Z,2.20
2022-09-06T18:43:11.803Z,2.40
2022-09-06T18:48:36.607Z,2.40
2022-09-06T18:53:59.597Z,1.83
2022-09-06T18:59:22.912Z,2.55
2022-09-06T19:04:46.128Z,2.10
2022-09-06T19:10:08.926Z,2.65
2022-09-06T19:15:31.318Z,2.20
2022-09-06T19:21:14.463Z,2.05
2022-09-06T19:26:39.322Z,2.10
2022-09-06T19:32:04.196Z,2.30
2022-09-06T19:37:27.176Z,2.30
2022-09-06T19:42:49.520Z,2.63
2022-09-06T19:48:11.996Z,2.00
2022-09-06T19:53:39.287Z,2.30
2022-09-06T19:59:05.407Z,2.60
2022-09-06T20:04:28.635Z,2.03
2022-09-06T20:09:52.611Z,2.55
2022-09-06T20:15:15.531Z,2.10
2022-09-06T20:20:37.882Z,2.50
2022-09-06T20:26:06.102Z,2.00
2022-09-06T20:31:30.190Z,2.03
2022-09-06T20:36:52.798Z,2.30
2022-09-06T20:42:15.315Z,2.20
2022-09-06T20:47:37.390Z,2.20
2022-09-06T20:52:59.911Z,2.20
2022-09-06T20:58:22.511Z,2.08
2022-09-06T21:03:44.992Z,2.08
2022-09-06T21:09:13.000Z,2.22
2022-09-06T21:14:35.510Z,2.03
2022-09-06T21:19:58.134Z,1.90
2022-09-06T21:25:20.854Z,1.92
2022-09-06T21:30:43.174Z,1.83
2022-09-06T21:36:15.696Z,2.13
2022-09-06T21:41:40.114Z,2.08
2022-09-06T21:47:02.912Z,1.90
2022-09-06T21:52:25.094Z,2.30
2022-09-06T21:57:47.442Z,2.05
2022-09-06T22:03:09.999Z,1.83
2022-09-06T22:08:32.476Z,2.00
2022-09-06T22:13:59.100Z,1.90
2022-09-06T22:19:21.330Z,2.00
2022-09-06T22:24:43.870Z,2.08
2022-09-06T22:30:07.983Z,1.80
2022-09-06T22:35:30.510Z,1.98
2022-09-06T22:40:53.699Z,2.05
2022-09-06T22:46:16.751Z,2.05
2022-09-06T22:51:39.439Z,1.70
2022-09-06T22:57:02.590Z,1.83
2022-09-06T23:02:25.156Z,1.65
2022-09-06T23:07:49.265Z,1.80
2022-09-06T23:13:11.735Z,1.90
2022-09-06T23:18:33.970Z,1.73
2022-09-06T23:23:57.559Z,1.75
2022-09-06T23:29:20.148Z,1.67
2022-09-06T23:34:42.531Z,2.17
2022-09-06T23:40:08.959Z,1.70
2022-09-06T23:45:31.722Z,1.92
2022-09-06T23:50:54.317Z,1.95
2022-09-06T23:56:17.027Z,1.65
